»·PEaware :: N612SR KHND-KRNO

N612SR :: KHND-KRNO

FLIGHT INFORMATION

Flight Status: Arrived
Operator: Privately registered:
United States
More flights under this callsign
Pilot: Rod T. (6553)
Aircraft: CIRRUS SR-22
(SR22)
More flights by this aircraft type
Origin: KHND Henderson
United States
Destination: KRNO Reno/Tahoe Intl
United States
More flights between these airports :: More routes between these airports
Route: HIDEN BTY OAL FMG
File this flight plan on PilotEdge
Remarks:
Altitude:
(Current/Filed)
12,500ft
Speed:
(Current/Filed)
190kts
Departed: 02-Feb-17 07:34 PM
Arrived: 02-Feb-17 09:22 PM
Distance/Time
Traveled:
305nm/1:48
Distance/Time
To Go:
Arrived

Flight Plot

Page will automatically refresh every two minutes.

Flight plan parsing failed; only flown route is shown


Map Options




Map Legend


Flown Route
Filed Route
Departure Airport
Arrival Airport
Navaid (VOR, NDB)
Fix

Horizontal Profiles

Position Reports

Time Latitude Longitude Heading Altitude Ground
Speed
02-Feb-17 19:23 35.977704 -115.138148 172 2383ft 0kts
02-Feb-17 19:24 35.977704 -115.138148 172 2383ft 0kts
02-Feb-17 19:25 35.977704 -115.138148 172 2383ft 0kts
02-Feb-17 19:26 35.977704 -115.138148 172 2383ft 0kts
02-Feb-17 19:27 35.977704 -115.138148 172 2383ft 0kts
02-Feb-17 19:28 35.977494 -115.137483 93 2383ft 4kts
02-Feb-17 19:29 35.980735 -115.136256 37 2383ft 13kts
02-Feb-17 19:30 35.980820 -115.136082 97 2383ft 0kts
02-Feb-17 19:31 35.980820 -115.136082 97 2383ft 0kts
02-Feb-17 19:32 35.980820 -115.136082 97 2383ft 0kts
02-Feb-17 19:33 35.980820 -115.136082 97 2383ft 0kts
02-Feb-17 19:34 35.976737 -115.135398 180 2383ft 80kts
02-Feb-17 19:35 35.952127 -115.146430 235 3401ft 116kts
02-Feb-17 19:36 35.936794 -115.183688 265 4503ft 139kts
02-Feb-17 19:37 35.940541 -115.238319 297 4454ft 175kts
02-Feb-17 19:38 35.964294 -115.291399 297 4530ft 175kts
02-Feb-17 19:39 35.986088 -115.345978 278 4659ft 180kts
02-Feb-17 19:40 35.990887 -115.399014 273 6274ft 133kts
02-Feb-17 19:41 35.993622 -115.443401 273 7587ft 129kts
02-Feb-17 19:42 35.995664 -115.488856 276 8751ft 136kts
02-Feb-17 19:43 35.998516 -115.535545 276 9935ft 138kts
02-Feb-17 19:44 36.002122 -115.583725 275 11063ft 143kts
02-Feb-17 19:45 36.005323 -115.632803 274 12193ft 145kts
02-Feb-17 19:46 36.008852 -115.688974 274 12470ft 188kts
02-Feb-17 19:47 36.013050 -115.756383 274 12466ft 204kts
02-Feb-17 19:48 36.017434 -115.827396 274 12465ft 208kts
02-Feb-17 19:49 36.021760 -115.898174 274 12490ft 207kts
02-Feb-17 19:50 36.026055 -115.969183 274 12492ft 207kts
02-Feb-17 19:51 36.048461 -116.029316 323 12494ft 207kts
02-Feb-17 19:52 36.093456 -116.071614 322 12491ft 196kts
02-Feb-17 19:53 36.135522 -116.111369 322 12492ft 189kts
02-Feb-17 19:54 36.177143 -116.150761 322 12492ft 188kts
02-Feb-17 19:55 36.218576 -116.190028 322 12492ft 187kts
02-Feb-17 19:56 36.259942 -116.229285 322 12492ft 187kts
02-Feb-17 19:57 36.301304 -116.268593 322 12492ft 187kts
02-Feb-17 19:58 36.342482 -116.307781 322 12492ft 187kts
02-Feb-17 19:59 36.383905 -116.347253 322 12492ft 187kts
02-Feb-17 20:00 36.425106 -116.386568 322 12492ft 187kts
02-Feb-17 20:01 36.466420 -116.426043 322 12492ft 187kts
02-Feb-17 20:02 36.507736 -116.465576 322 12492ft 187kts
02-Feb-17 20:03 36.549010 -116.505135 322 12492ft 187kts
02-Feb-17 20:04 36.590186 -116.544639 322 12492ft 187kts
02-Feb-17 20:05 36.631448 -116.584286 322 12492ft 187kts
02-Feb-17 20:06 36.672758 -116.624043 322 12492ft 187kts
02-Feb-17 20:07 36.706918 -116.656947 322 12492ft 187kts
02-Feb-17 20:08 36.748066 -116.696640 322 12492ft 187kts
02-Feb-17 20:09 36.789253 -116.736427 322 12492ft 187kts
02-Feb-17 20:10 36.831995 -116.773795 326 12492ft 187kts
02-Feb-17 20:11 36.882632 -116.816107 326 12492ft 187kts
02-Feb-17 20:12 36.918714 -116.846272 326 12492ft 187kts
02-Feb-17 20:13 36.962032 -116.882544 326 12492ft 188kts
02-Feb-17 20:14 37.005330 -116.918866 326 12492ft 188kts
02-Feb-17 20:15 37.055825 -116.961281 326 12492ft 188kts
02-Feb-17 20:16 37.092009 -116.991717 326 12492ft 188kts
02-Feb-17 20:17 37.135026 -117.027947 326 12519ft 187kts
02-Feb-17 20:18 37.178054 -117.064234 326 12519ft 187kts
02-Feb-17 20:19 37.228174 -117.106576 326 12560ft 185kts
02-Feb-17 20:20 37.270938 -117.142748 326 12565ft 186kts
02-Feb-17 20:21 37.313980 -117.179210 326 12565ft 187kts
02-Feb-17 20:22 37.349796 -117.209590 326 12565ft 187kts
02-Feb-17 20:23 37.392803 -117.246117 326 12565ft 187kts
02-Feb-17 20:24 37.435799 -117.282684 326 12565ft 187kts
02-Feb-17 20:25 37.478709 -117.319268 326 12566ft 187kts
02-Feb-17 20:26 37.521380 -117.355867 326 12565ft 185kts
02-Feb-17 20:27 37.563926 -117.392212 326 12565ft 185kts
02-Feb-17 20:28 37.606456 -117.428588 326 12565ft 185kts
02-Feb-17 20:29 37.648975 -117.465006 326 12565ft 185kts
02-Feb-17 20:30 37.691422 -117.501423 326 12565ft 185kts
02-Feb-17 20:31 37.733852 -117.537806 326 12564ft 185kts
02-Feb-17 20:32 37.776568 -117.574379 326 12565ft 186kts
02-Feb-17 20:33 37.819274 -117.611140 326 12565ft 186kts
02-Feb-17 20:34 37.861886 -117.648107 326 12564ft 185kts
02-Feb-17 20:35 37.904310 -117.684797 326 12564ft 185kts
02-Feb-17 20:36 37.946664 -117.721454 326 12564ft 185kts
02-Feb-17 20:37 37.989072 -117.758157 326 12564ft 185kts
02-Feb-17 20:38 38.027963 -117.800311 317 12564ft 185kts
02-Feb-17 20:39 38.065332 -117.845149 317 12564ft 185kts
02-Feb-17 20:40 38.102560 -117.889813 317 12565ft 185kts
02-Feb-17 20:41 38.139882 -117.934654 317 12565ft 185kts
02-Feb-17 20:42 38.177237 -117.979600 317 12565ft 185kts
02-Feb-17 20:43 38.214625 -118.024652 317 12565ft 185kts
02-Feb-17 20:44 38.251996 -118.069743 316 12564ft 185kts
02-Feb-17 20:45 38.289669 -118.114968 316 12565ft 186kts
02-Feb-17 20:46 38.327026 -118.160485 317 12565ft 186kts
02-Feb-17 20:47 38.364289 -118.205619 317 12573ft 185kts
02-Feb-17 20:48 38.401643 -118.250709 316 12592ft 186kts
02-Feb-17 20:49 38.439469 -118.296956 317 12484ft 187kts
02-Feb-17 20:50 38.476545 -118.342121 317 12484ft 186kts
02-Feb-17 20:51 38.514540 -118.388195 316 12484ft 187kts
02-Feb-17 20:52 38.552232 -118.434219 316 12484ft 187kts
02-Feb-17 20:53 38.589823 -118.480208 316 12484ft 188kts
02-Feb-17 20:54 38.627568 -118.526448 316 12484ft 188kts
02-Feb-17 20:55 38.664977 -118.572565 317 12483ft 187kts
02-Feb-17 20:56 38.702524 -118.618501 316 12484ft 187kts
02-Feb-17 20:57 38.739983 -118.664599 315 12484ft 188kts
02-Feb-17 20:58 38.778243 -118.711763 315 12210ft 198kts
02-Feb-17 20:59 38.819177 -118.762306 315 11480ft 211kts
02-Feb-17 21:00 38.861470 -118.814858 316 10586ft 211kts
02-Feb-17 21:01 38.875101 -118.882499 278 10481ft 191kts
02-Feb-17 21:02 38.894796 -118.942125 308 10482ft 185kts
02-Feb-17 21:03 38.926535 -118.993765 308 10482ft 184kts
02-Feb-17 21:04 38.958281 -119.045392 308 10482ft 184kts
02-Feb-17 21:05 38.989893 -119.096902 309 10482ft 184kts
02-Feb-17 21:06 39.024258 -119.144862 323 10483ft 183kts
02-Feb-17 21:07 39.064682 -119.184763 323 10482ft 183kts
02-Feb-17 21:08 39.104611 -119.224537 323 10508ft 183kts
02-Feb-17 21:09 39.146070 -119.265777 323 10196ft 200kts
02-Feb-17 21:10 39.191437 -119.310575 323 9502ft 208kts
02-Feb-17 21:11 39.236950 -119.355682 323 8806ft 205kts
02-Feb-17 21:12 39.280746 -119.398894 323 8491ft 189kts
02-Feb-17 21:13 39.321975 -119.438881 323 8493ft 184kts
02-Feb-17 21:14 39.362874 -119.478549 323 8493ft 184kts
02-Feb-17 21:15 39.403570 -119.518000 323 8493ft 183kts
02-Feb-17 21:16 39.430819 -119.570492 291 8459ft 185kts
02-Feb-17 21:17 39.451629 -119.631923 294 8361ft 187kts
02-Feb-17 21:18 39.472158 -119.690687 294 7907ft 161kts
02-Feb-17 21:19 39.488995 -119.736382 297 6063ft 122kts
02-Feb-17 21:20 39.514097 -119.751256 4 5227ft 105kts
02-Feb-17 21:21 39.525683 -119.766918 189 4744ft 88kts
02-Feb-17 21:22 39.505286 -119.766772 178 4417ft 38kts
02-Feb-17 21:23 39.502815 -119.765838 137 4417ft 0kts
02-Feb-17 21:24 39.502815 -119.765838 137 4417ft 0kts
02-Feb-17 21:25 39.501152 -119.765428 77 4417ft 15kts

Navigation Log

Ident Type
Flight plan parsing failed, navigation log unavailable